Time;durP1;ratioP1;P1;durP2;ratioP2;P2;SDS_P1;SDS_P2;PMS_P1;PMS_P2;Temp;Humidity;BMP_temperature;BMP_pressure;BME280_temperature;BME280_humidity;BME280_pressure;Samples;Min_cycle;Max_cycle;Signal;HPM_P1;HPM_P2
2021/10/20 00:01:38;;;;;;;17.63;16.33;;;8.10;99.90;;;;;;4965769;28;20245;-79
2021/10/20 00:04:05;;;;;;;17.87;16.53;;;8.10;99.90;;;;;;4948052;29;20297;-79
2021/10/20 00:06:32;;;;;;;18.33;16.93;;;8.10;99.90;;;;;;4947726;28;20213;-79
2021/10/20 00:08:59;;;;;;;19.07;17.47;;;8.10;99.90;;;;;;4964981;28;20754;-78
2021/10/20 00:11:26;;;;;;;18.73;17.23;;;8.20;99.90;;;;;;4965080;28;20275;-78
2021/10/20 00:13:55;;;;;;;18.57;17.27;;;8.20;99.90;;;;;;4948731;28;20205;-79
2021/10/20 00:16:23;;;;;;;18.33;17.00;;;8.30;99.90;;;;;;4955400;28;20292;-79
2021/10/20 00:18:50;;;;;;;17.83;16.60;;;8.30;99.90;;;;;;4945257;28;20262;-79
2021/10/20 00:21:23;;;;;;;18.30;17.00;;;8.20;99.90;;;;;;4968051;28;20286;-79
2021/10/20 00:23:50;;;;;;;17.77;16.43;;;8.20;99.90;;;;;;4944822;28;20700;-79
2021/10/20 00:26:17;;;;;;;17.53;16.10;;;8.20;99.90;;;;;;4967953;28;20198;-78
2021/10/20 00:28:44;;;;;;;18.30;16.90;;;8.20;99.90;;;;;;4943704;28;20640;-77
2021/10/20 00:31:12;;;;;;;17.83;16.43;;;8.20;99.90;;;;;;4950642;28;20275;-80
2021/10/20 00:33:39;;;;;;;17.70;16.40;;;8.10;99.90;;;;;;4942787;28;20206;-78
2021/10/20 00:36:06;;;;;;;18.53;16.90;;;8.10;99.90;;;;;;4950397;28;20646;-79
2021/10/20 00:38:33;;;;;;;18.10;16.70;;;8.10;99.90;;;;;;4966713;28;20209;-78
2021/10/20 00:40:59;;;;;;;17.03;15.83;;;8.10;99.90;;;;;;4945469;28;20660;-79
2021/10/20 00:43:26;;;;;;;17.30;15.90;;;8.10;99.90;;;;;;4967467;28;20259;-79
2021/10/20 00:45:53;;;;;;;17.13;15.93;;;8.10;99.90;;;;;;4961246;28;20476;-78
2021/10/20 00:48:22;;;;;;;17.43;16.03;;;8.00;99.90;;;;;;4967102;28;20190;-77
2021/10/20 00:50:48;;;;;;;18.10;16.70;;;8.00;99.90;;;;;;4959715;28;20221;-79
2021/10/20 00:53:15;;;;;;;17.30;15.90;;;8.00;99.90;;;;;;4950313;28;20201;-79
2021/10/20 00:55:43;;;;;;;16.60;15.40;;;8.00;99.90;;;;;;4965422;28;20220;-79
2021/10/20 00:58:10;;;;;;;16.70;15.50;;;8.00;99.90;;;;;;4963549;28;20255;-78
2021/10/20 01:00:38;;;;;;;16.23;15.07;;;8.00;99.90;;;;;;4965666;28;20291;-79
2021/10/20 01:03:05;;;;;;;16.00;14.87;;;7.90;99.90;;;;;;4945239;28;20254;-79
2021/10/20 01:05:34;;;;;;;16.33;15.13;;;8.00;99.90;;;;;;4949539;28;20588;-79
2021/10/20 01:08:00;;;;;;;16.90;15.60;;;7.90;99.90;;;;;;4968855;28;20198;-79
2021/10/20 01:10:28;;;;;;;16.80;15.60;;;7.90;99.90;;;;;;4971114;28;20220;-78
2021/10/20 01:12:54;;;;;;;16.63;15.43;;;7.90;99.90;;;;;;4947143;29;20225;-79
2021/10/20 01:15:23;;;;;;;16.83;15.53;;;8.00;99.90;;;;;;4950196;28;20267;-79
2021/10/20 01:17:51;;;;;;;15.90;14.80;;;8.00;99.90;;;;;;4967208;28;20268;-78
2021/10/20 01:20:20;;;;;;;16.10;14.93;;;8.00;99.90;;;;;;4949862;28;20197;-78
2021/10/20 01:22:49;;;;;;;16.40;15.17;;;8.00;99.90;;;;;;4963752;28;20201;-79
2021/10/20 01:25:16;;;;;;;16.40;15.30;;;8.00;99.90;;;;;;4958166;28;20195;-79
2021/10/20 01:27:43;;;;;;;16.53;15.33;;;8.00;99.90;;;;;;4950454;28;20294;-77
2021/10/20 01:30:11;;;;;;;16.47;15.27;;;8.00;99.90;;;;;;4949813;28;20260;-79
2021/10/20 01:32:38;;;;;;;15.87;14.77;;;8.00;99.90;;;;;;4967327;28;20209;-79
2021/10/20 01:35:06;;;;;;;15.97;14.87;;;8.00;99.90;;;;;;4964872;28;20205;-78
2021/10/20 01:37:33;;;;;;;16.20;15.00;;;8.00;99.90;;;;;;4945303;28;20209;-78
2021/10/20 01:40:01;;;;;;;16.20;15.00;;;8.00;99.90;;;;;;4949479;28;20201;-78
2021/10/20 01:42:29;;;;;;;16.23;15.03;;;8.00;99.90;;;;;;4951294;28;20223;-78
2021/10/20 01:44:57;;;;;;;16.30;15.20;;;8.00;99.90;;;;;;4947731;28;20201;-79
2021/10/20 01:47:24;;;;;;;15.70;14.60;;;8.00;99.90;;;;;;4966484;28;20200;-78
2021/10/20 01:49:51;;;;;;;15.60;14.60;;;7.90;99.90;;;;;;4964236;28;20204;-79
2021/10/20 01:52:18;;;;;;;15.63;14.57;;;7.90;99.90;;;;;;4965384;28;20268;-78
2021/10/20 01:54:45;;;;;;;15.30;14.30;;;7.90;99.90;;;;;;4952927;28;20213;-78
2021/10/20 01:57:13;;;;;;;16.03;14.93;;;7.90;99.90;;;;;;4968953;28;20724;-78
2021/10/20 01:59:40;;;;;;;15.93;14.83;;;7.90;99.90;;;;;;4948770;28;20207;-78
2021/10/20 02:02:16;;;;;;;15.73;14.67;;;7.90;99.90;;;;;;4949046;28;20261;-79
2021/10/20 02:04:43;;;;;;;15.40;14.30;;;7.80;99.90;;;;;;4964114;28;20666;-78
2021/10/20 02:07:09;;;;;;;15.30;14.30;;;7.90;99.90;;;;;;4948654;28;20202;-79
2021/10/20 02:09:36;;;;;;;16.50;15.30;;;7.90;99.90;;;;;;4963847;28;20201;-78
2021/10/20 02:12:03;;;;;;;16.07;14.97;;;7.90;99.90;;;;;;4967259;28;20232;-79
2021/10/20 02:14:32;;;;;;;15.83;14.80;;;7.90;99.90;;;;;;4969631;28;20212;-78
2021/10/20 02:16:58;;;;;;;16.27;15.17;;;7.90;99.90;;;;;;4948743;28;20600;-78
2021/10/20 02:19:27;;;;;;;16.77;15.30;;;7.80;99.90;;;;;;4948416;28;20250;-79
2021/10/20 02:21:54;;;;;;;16.13;15.00;;;7.90;99.90;;;;;;4962409;28;20788;-78
2021/10/20 02:24:21;;;;;;;16.40;15.20;;;7.80;99.90;;;;;;4948662;28;20266;-78
2021/10/20 02:26:48;;;;;;;16.80;15.60;;;7.80;99.90;;;;;;4961861;28;20684;-80
2021/10/20 02:29:15;;;;;;;16.33;15.03;;;7.80;99.90;;;;;;4946109;28;20260;-79
2021/10/20 02:31:46;;;;;;;16.80;15.50;;;7.70;99.90;;;;;;4967740;28;20216;-77
2021/10/20 02:34:14;;;;;;;16.73;15.53;;;7.70;99.90;;;;;;4958168;28;20673;-78
2021/10/20 02:36:41;;;;;;;16.67;15.47;;;7.70;99.90;;;;;;4963247;28;20209;-78
2021/10/20 02:39:08;;;;;;;16.33;15.20;;;7.70;99.90;;;;;;4944985;29;20250;-79
2021/10/20 02:41:35;;;;;;;16.47;15.27;;;7.60;99.90;;;;;;4964400;28;20713;-79
2021/10/20 02:44:02;;;;;;;15.83;14.73;;;7.60;99.90;;;;;;4954293;28;20256;-80
2021/10/20 02:46:29;;;;;;;15.83;14.73;;;7.60;99.90;;;;;;4955358;28;20196;-79
2021/10/20 02:48:57;;;;;;;17.57;16.17;;;7.60;99.90;;;;;;4965845;28;20204;-81
2021/10/20 02:51:24;;;;;;;17.33;16.07;;;7.60;99.90;;;;;;4973468;28;20228;-82
2021/10/20 02:53:51;;;;;;;16.77;15.43;;;7.50;99.90;;;;;;4948576;28;20200;-78
2021/10/20 02:56:18;;;;;;;16.27;15.17;;;7.60;99.90;;;;;;4955694;28;20224;-79
2021/10/20 02:58:45;;;;;;;16.10;14.90;;;7.60;99.90;;;;;;4962553;28;20233;-78
2021/10/20 03:01:12;;;;;;;16.00;14.87;;;7.60;99.90;;;;;;4958713;28;20224;-79
2021/10/20 03:03:39;;;;;;;16.27;15.17;;;7.60;99.90;;;;;;4968069;28;20206;-78
2021/10/20 03:06:07;;;;;;;16.63;15.33;;;7.60;99.90;;;;;;4969968;28;20240;-79
2021/10/20 03:08:34;;;;;;;16.90;15.40;;;7.60;99.90;;;;;;4969010;28;20254;-78
2021/10/20 03:11:01;;;;;;;16.60;15.43;;;7.50;99.90;;;;;;4968577;28;20243;-78
2021/10/20 03:13:28;;;;;;;16.67;15.47;;;7.50;99.90;;;;;;4954398;28;20208;-78
2021/10/20 03:15:55;;;;;;;16.30;15.10;;;7.50;99.90;;;;;;4952209;28;20312;-77
2021/10/20 03:18:21;;;;;;;15.13;14.13;;;7.40;99.90;;;;;;4963727;28;20736;-78
2021/10/20 03:20:48;;;;;;;15.70;14.53;;;7.40;99.90;;;;;;4949729;28;20216;-78
2021/10/20 03:23:16;;;;;;;16.00;14.77;;;7.40;99.90;;;;;;4959400;28;20215;-76
2021/10/20 03:25:43;;;;;;;15.50;14.40;;;7.40;99.90;;;;;;4964870;28;20246;-78
2021/10/20 03:28:10;;;;;;;16.03;14.90;;;7.40;99.90;;;;;;4950961;28;20673;-78
2021/10/20 03:30:37;;;;;;;15.83;14.83;;;7.40;99.90;;;;;;4961514;28;20220;-77
2021/10/20 03:33:04;;;;;;;14.77;13.77;;;7.40;99.90;;;;;;4961573;28;20231;-77
2021/10/20 03:35:30;;;;;;;15.20;14.20;;;7.40;99.90;;;;;;4960359;28;20199;-77
2021/10/20 03:37:57;;;;;;;15.60;14.50;;;7.40;99.90;;;;;;4964016;28;20255;-78
2021/10/20 03:40:25;;;;;;;16.20;15.10;;;7.40;99.90;;;;;;4948706;28;20325;-78
2021/10/20 03:42:52;;;;;;;16.50;15.20;;;7.40;99.90;;;;;;4963604;28;20250;-78
2021/10/20 03:45:19;;;;;;;15.60;14.50;;;7.40;99.90;;;;;;4947713;28;20249;-78
2021/10/20 03:47:46;;;;;;;16.10;14.93;;;7.30;99.90;;;;;;4946875;28;20205;-78
2021/10/20 03:50:14;;;;;;;16.00;14.90;;;7.30;99.90;;;;;;4949141;28;20211;-77
2021/10/20 03:52:41;;;;;;;15.80;14.70;;;7.30;99.90;;;;;;4963787;28;20247;-77
2021/10/20 03:55:08;;;;;;;16.77;15.57;;;7.20;99.90;;;;;;4963130;28;20200;-77
2021/10/20 03:57:37;;;;;;;16.40;15.10;;;7.20;99.90;;;;;;4966474;28;20295;-77
2021/10/20 04:00:06;;;;;;;16.37;15.07;;;7.20;99.90;;;;;;4964369;28;20204;-78
2021/10/20 04:02:42;;;;;;;15.63;14.53;;;7.20;99.90;;;;;;4963373;28;20261;-78
2021/10/20 04:05:09;;;;;;;15.17;14.17;;;7.10;99.90;;;;;;4961787;28;20203;-78
2021/10/20 04:07:39;;;;;;;16.73;15.43;;;7.10;99.90;;;;;;4945460;28;20227;-78
2021/10/20 04:10:07;;;;;;;16.20;15.00;;;7.10;99.90;;;;;;4966628;28;20294;-77
2021/10/20 04:12:35;;;;;;;15.50;14.40;;;7.00;99.90;;;;;;4969061;28;20289;-77
2021/10/20 04:15:03;;;;;;;15.20;14.20;;;7.00;99.90;;;;;;4944367;29;20200;-78
2021/10/20 04:17:29;;;;;;;15.43;14.33;;;6.90;99.90;;;;;;4949243;28;20220;-77
2021/10/20 04:19:56;;;;;;;15.80;14.50;;;6.90;99.90;;;;;;4962740;28;20200;-77
2021/10/20 04:22:23;;;;;;;16.33;15.03;;;6.90;99.90;;;;;;4964723;28;20302;-77
2021/10/20 04:24:50;;;;;;;17.00;15.53;;;6.90;99.90;;;;;;4963448;28;20198;-78
2021/10/20 04:27:17;;;;;;;15.40;14.30;;;6.90;99.90;;;;;;4947436;28;20196;-78
2021/10/20 04:29:45;;;;;;;15.97;14.87;;;6.90;99.90;;;;;;4973143;28;20538;-77
2021/10/20 04:32:12;;;;;;;16.47;15.30;;;6.90;99.90;;;;;;4964611;28;20218;-77
2021/10/20 04:34:38;;;;;;;16.17;15.07;;;6.90;99.90;;;;;;4945838;28;20232;-78
2021/10/20 04:37:05;;;;;;;16.00;14.90;;;6.90;99.90;;;;;;4946603;28;20237;-78
2021/10/20 04:39:32;;;;;;;16.47;15.37;;;6.90;99.90;;;;;;4964009;28;20613;-77
2021/10/20 04:41:59;;;;;;;17.83;16.53;;;7.00;99.90;;;;;;4952756;28;20666;-77
2021/10/20 04:44:25;;;;;;;17.07;15.77;;;6.90;99.90;;;;;;4954654;28;20214;-77
2021/10/20 04:46:53;;;;;;;17.27;15.87;;;7.00;99.90;;;;;;4947451;29;20201;-77
2021/10/20 04:49:20;;;;;;;17.10;15.90;;;7.00;99.90;;;;;;4950412;28;20563;-77
2021/10/20 04:51:47;;;;;;;16.70;15.50;;;7.00;99.90;;;;;;4964856;28;20219;-78
2021/10/20 04:54:14;;;;;;;17.13;15.83;;;7.00;99.90;;;;;;4950253;28;20613;-78
2021/10/20 04:56:41;;;;;;;16.60;15.50;;;7.00;99.90;;;;;;4965177;28;20583;-78
2021/10/20 04:59:07;;;;;;;17.03;15.80;;;7.00;99.90;;;;;;4950503;28;20208;-77
2021/10/20 05:01:34;;;;;;;17.10;15.90;;;7.00;99.90;;;;;;4965607;28;20712;-78
2021/10/20 05:04:02;;;;;;;16.37;15.20;;;7.00;99.90;;;;;;4962975;28;20198;-78
2021/10/20 05:06:29;;;;;;;17.37;16.07;;;6.90;99.90;;;;;;4955820;28;20195;-77
2021/10/20 05:08:56;;;;;;;17.07;15.87;;;6.90;99.90;;;;;;4943703;28;20207;-77
2021/10/20 05:11:23;;;;;;;18.17;16.67;;;6.80;99.90;;;;;;4970640;28;20277;-77
2021/10/20 05:13:49;;;;;;;16.87;15.57;;;6.80;99.90;;;;;;4950097;28;20269;-78
2021/10/20 05:16:16;;;;;;;16.97;15.77;;;6.80;99.90;;;;;;4950043;28;20731;-77
2021/10/20 05:18:43;;;;;;;17.27;15.97;;;6.80;99.90;;;;;;4947545;28;20211;-77
2021/10/20 05:21:11;;;;;;;16.50;15.30;;;6.70;99.90;;;;;;4948904;28;20222;-77
2021/10/20 05:23:38;;;;;;;17.00;15.87;;;6.70;99.90;;;;;;4963868;28;20210;-77
2021/10/20 05:26:05;;;;;;;17.07;15.77;;;6.70;99.90;;;;;;4950139;28;20211;-77
2021/10/20 05:28:32;;;;;;;17.23;15.93;;;6.70;99.90;;;;;;4969336;28;20676;-77
2021/10/20 05:30:59;;;;;;;18.03;16.73;;;6.70;99.90;;;;;;4949788;28;20230;-77
2021/10/20 05:33:25;;;;;;;17.07;15.80;;;6.70;99.90;;;;;;4949988;28;20289;-77
2021/10/20 05:35:52;;;;;;;17.47;16.17;;;6.70;99.90;;;;;;4966782;28;20199;-77
2021/10/20 05:38:20;;;;;;;16.80;15.50;;;6.70;99.90;;;;;;4966097;28;20270;-78
2021/10/20 05:40:47;;;;;;;16.93;15.73;;;6.70;99.90;;;;;;4971114;28;20223;-77
2021/10/20 05:43:14;;;;;;;17.70;16.43;;;6.70;99.90;;;;;;4963954;28;20208;-77
2021/10/20 05:45:41;;;;;;;17.47;16.07;;;6.70;99.90;;;;;;4968148;28;20250;-77
2021/10/20 05:48:07;;;;;;;17.37;15.97;;;6.60;99.90;;;;;;4948592;28;20634;-77
2021/10/20 05:50:34;;;;;;;17.47;16.17;;;6.60;99.90;;;;;;4964511;28;20218;-77
2021/10/20 05:53:01;;;;;;;17.33;16.03;;;6.60;99.90;;;;;;4965338;28;20194;-78
2021/10/20 05:55:29;;;;;;;18.10;16.70;;;6.60;99.90;;;;;;4947632;28;20212;-77
2021/10/20 05:57:56;;;;;;;16.43;15.20;;;6.60;99.90;;;;;;4951599;28;20222;-77
2021/10/20 06:00:23;;;;;;;16.23;15.03;;;6.70;99.90;;;;;;4970505;28;20227;-78
2021/10/20 06:02:50;;;;;;;16.30;15.07;;;6.60;99.90;;;;;;4966532;28;20198;-77
2021/10/20 06:05:17;;;;;;;16.33;15.00;;;6.70;99.90;;;;;;4967511;28;20279;-78
2021/10/20 06:07:46;;;;;;;16.60;15.20;;;6.60;99.90;;;;;;4946367;28;20206;-77
2021/10/20 06:10:15;;;;;;;16.90;15.60;;;6.70;99.90;;;;;;4965798;28;20247;-77
2021/10/20 06:12:44;;;;;;;16.73;15.43;;;6.70;99.90;;;;;;4963640;28;20207;-77
2021/10/20 06:15:11;;;;;;;17.60;16.30;;;6.70;99.90;;;;;;4957020;28;20194;-77
2021/10/20 06:17:39;;;;;;;17.30;15.90;;;6.80;99.90;;;;;;4967507;28;20230;-77
2021/10/20 06:20:07;;;;;;;18.67;16.87;;;6.80;99.90;;;;;;4948612;28;20253;-78
2021/10/20 06:22:35;;;;;;;17.90;16.37;;;6.80;99.90;;;;;;4947588;28;20215;-77
2021/10/20 06:25:02;;;;;;;18.27;16.77;;;6.80;99.90;;;;;;4955421;28;20190;-77
2021/10/20 06:27:28;;;;;;;18.40;16.63;;;6.90;99.90;;;;;;4954874;28;20188;-78
2021/10/20 06:29:56;;;;;;;19.37;17.47;;;6.90;99.90;;;;;;4937758;29;20259;-79
2021/10/20 06:32:23;;;;;;;17.80;16.27;;;6.90;99.90;;;;;;4947298;28;20652;-77
2021/10/20 06:34:50;;;;;;;17.67;16.17;;;7.10;99.90;;;;;;4961164;28;20201;-77
2021/10/20 06:37:17;;;;;;;18.20;16.60;;;7.40;99.90;;;;;;4945587;28;20219;-78
2021/10/20 06:39:44;;;;;;;17.50;15.90;;;7.80;99.90;;;;;;4963204;28;20239;-77
2021/10/20 06:42:10;;;;;;;16.90;15.37;;;8.00;99.90;;;;;;4960969;28;20223;-77
2021/10/20 06:44:37;;;;;;;16.87;15.30;;;8.10;99.90;;;;;;4964277;28;20549;-77
2021/10/20 06:47:05;;;;;;;18.13;16.50;;;8.20;99.90;;;;;;4964107;28;20202;-78
2021/10/20 06:49:32;;;;;;;19.67;18.13;;;8.30;99.90;;;;;;4944861;28;20211;-78
2021/10/20 06:51:59;;;;;;;15.53;14.23;;;8.30;99.90;;;;;;4966511;28;20229;-78
2021/10/20 06:54:27;;;;;;;13.23;12.13;;;8.40;99.90;;;;;;4968190;28;20248;-77
2021/10/20 06:56:55;;;;;;;15.03;13.53;;;8.50;99.90;;;;;;4947818;28;20240;-77
2021/10/20 06:59:22;;;;;;;17.30;15.83;;;8.60;99.90;;;;;;4965612;28;20205;-78
2021/10/20 07:01:49;;;;;;;17.70;16.20;;;8.80;99.90;;;;;;4964582;28;20256;-77
2021/10/20 07:04:17;;;;;;;16.87;15.50;;;8.90;99.90;;;;;;4949044;28;20277;-78
2021/10/20 07:06:44;;;;;;;17.03;15.73;;;9.00;99.90;;;;;;4964612;28;20202;-78
2021/10/20 07:09:11;;;;;;;17.07;15.57;;;9.10;99.90;;;;;;4963829;28;20629;-78
2021/10/20 07:11:37;;;;;;;16.77;15.27;;;9.20;99.90;;;;;;4966611;28;20217;-77
2021/10/20 07:14:04;;;;;;;8.43;6.80;;;9.30;99.90;;;;;;4964432;28;20198;-78
2021/10/20 07:16:34;;;;;;;14.83;13.73;;;9.50;99.90;;;;;;4947362;28;20206;-78
2021/10/20 07:19:03;;;;;;;8.23;6.40;;;9.80;99.90;;;;;;4964134;28;20573;-78
2021/10/20 07:21:32;;;;;;;9.77;7.47;;;10.10;99.90;;;;;;4946119;28;20219;-77
2021/10/20 07:23:58;;;;;;;9.40;6.90;;;10.40;99.90;;;;;;4949823;28;20643;-78
2021/10/20 07:26:25;;;;;;;10.83;9.73;;;10.80;99.90;;;;;;4969094;28;20264;-77
2021/10/20 07:28:52;;;;;;;10.90;9.80;;;11.30;99.90;;;;;;4965562;28;20186;-78
2021/10/20 07:31:19;;;;;;;8.10;7.20;;;11.90;99.90;;;;;;4965179;28;20277;-78
2021/10/20 07:33:46;;;;;;;15.33;14.23;;;12.40;99.90;;;;;;4963130;28;20201;-77
2021/10/20 07:36:13;;;;;;;13.63;12.60;;;12.80;99.90;;;;;;4946677;28;20215;-78
2021/10/20 07:38:41;;;;;;;11.57;10.67;;;13.10;99.90;;;;;;4961854;28;20287;-78
2021/10/20 07:41:08;;;;;;;13.30;12.30;;;13.70;99.90;;;;;;4947679;28;20242;-78
2021/10/20 07:43:34;;;;;;;16.60;15.50;;;14.00;99.90;;;;;;4950499;28;20260;-78
2021/10/20 07:46:01;;;;;;;11.03;10.13;;;14.40;99.90;;;;;;4965703;28;20202;-78
2021/10/20 07:48:28;;;;;;;7.47;6.50;;;14.80;99.90;;;;;;4945748;28;20202;-78
2021/10/20 07:50:55;;;;;;;7.63;6.83;;;15.10;99.90;;;;;;4975853;28;20284;-78
2021/10/20 07:53:22;;;;;;;14.77;13.77;;;15.40;99.90;;;;;;4962688;28;20652;-78
2021/10/20 07:55:50;;;;;;;13.17;12.27;;;15.90;99.90;;;;;;4947782;28;20206;-78
2021/10/20 07:58:17;;;;;;;11.73;10.90;;;16.30;99.90;;;;;;4960880;28;20347;-78
2021/10/20 08:00:44;;;;;;;14.23;13.23;;;16.60;99.90;;;;;;4978220;28;20221;-79
2021/10/20 08:03:10;;;;;;;9.53;8.63;;;16.70;99.90;;;;;;4962565;28;20204;-79
2021/10/20 08:05:37;;;;;;;9.23;8.13;;;16.90;99.90;;;;;;4948699;28;20224;-78
2021/10/20 08:08:07;;;;;;;13.47;12.47;;;17.00;99.90;;;;;;4963537;28;20208;-78
2021/10/20 08:10:34;;;;;;;7.17;6.00;;;17.00;99.90;;;;;;4944541;28;20227;-78
2021/10/20 08:13:02;;;;;;;11.77;10.87;;;16.90;99.90;;;;;;4944182;28;20213;-78
2021/10/20 08:15:29;;;;;;;13.70;12.53;;;16.90;99.90;;;;;;4947460;28;20213;-78
2021/10/20 08:18:00;;;;;;;13.07;11.90;;;17.00;99.90;;;;;;4949045;28;20215;-78
2021/10/20 08:20:31;;;;;;;7.87;7.23;;;17.10;99.90;;;;;;4944873;28;20604;-78
2021/10/20 08:22:58;;;;;;;13.03;12.10;;;17.30;99.90;;;;;;4952924;28;20557;-79
2021/10/20 08:25:25;;;;;;;12.80;12.00;;;17.70;99.90;;;;;;4953733;28;20210;-79
2021/10/20 08:27:52;;;;;;;9.90;9.10;;;18.00;99.90;;;;;;4948680;28;20233;-79
2021/10/20 08:30:21;;;;;;;12.37;11.50;;;18.30;99.90;;;;;;4963653;28;20672;-78
2021/10/20 08:32:49;;;;;;;14.27;13.20;;;18.60;99.90;;;;;;4950524;28;20734;-78
2021/10/20 08:35:16;;;;;;;11.73;10.93;;;19.00;99.90;;;;;;4945648;28;20219;-79
2021/10/20 08:37:44;;;;;;;11.47;10.70;;;19.40;99.90;;;;;;4966435;28;20212;-78
2021/10/20 08:40:12;;;;;;;12.10;11.30;;;19.80;99.90;;;;;;4962830;28;20259;-79
2021/10/20 08:42:39;;;;;;;10.57;9.80;;;20.30;99.90;;;;;;4967425;28;20285;-78
2021/10/20 08:45:08;;;;;;;9.47;7.70;;;20.50;99.90;;;;;;4967870;28;20228;-78
2021/10/20 08:47:37;;;;;;;11.33;10.53;;;20.70;99.90;;;;;;4962284;28;20230;-79
2021/10/20 08:50:05;;;;;;;12.47;11.67;;;20.60;99.90;;;;;;4967933;28;20213;-78
2021/10/20 08:52:32;;;;;;;12.87;11.97;;;20.40;99.90;;;;;;4944014;28;20625;-79
2021/10/20 08:55:00;;;;;;;11.80;11.00;;;20.20;99.90;;;;;;4967929;28;20202;-78
2021/10/20 08:57:27;;;;;;;13.40;12.50;;;20.00;99.90;;;;;;4958366;28;20212;-78
2021/10/20 08:59:54;;;;;;;13.57;12.67;;;19.90;99.90;;;;;;4967484;28;20201;-78
2021/10/20 09:02:22;;;;;;;13.13;12.33;;;19.80;99.90;;;;;;4950384;28;20763;-79
2021/10/20 09:04:54;;;;;;;13.40;12.60;;;19.70;99.90;;;;;;4943674;28;20216;-78
2021/10/20 09:07:21;;;;;;;14.20;13.17;;;19.80;99.90;;;;;;4950134;28;20233;-78
2021/10/20 09:09:52;;;;;;;13.30;12.43;;;19.60;99.90;;;;;;4959500;28;20232;-79
2021/10/20 09:12:25;;;;;;;13.80;12.90;;;19.80;99.90;;;;;;4951506;28;20638;-79
2021/10/20 09:14:56;;;;;;;14.13;13.20;;;19.80;99.90;;;;;;4954803;29;20309;-78
2021/10/20 09:17:23;;;;;;;12.33;11.40;;;19.80;99.90;;;;;;4948529;28;20204;-78
2021/10/20 09:19:50;;;;;;;13.13;12.27;;;20.00;99.90;;;;;;4963635;28;20199;-78
2021/10/20 09:22:18;;;;;;;12.93;12.03;;;19.90;99.90;;;;;;4946906;28;20715;-78
2021/10/20 09:24:46;;;;;;;13.07;12.20;;;20.00;99.90;;;;;;4947250;28;20203;-79
2021/10/20 09:27:19;;;;;;;13.37;12.57;;;20.20;99.90;;;;;;4947011;28;20206;-79
2021/10/20 09:29:46;;;;;;;13.57;12.57;;;20.30;99.90;;;;;;4966447;28;20659;-79
2021/10/20 09:32:13;;;;;;;13.50;12.50;;;20.10;99.90;;;;;;4968191;28;20226;-79
2021/10/20 09:34:41;;;;;;;13.57;12.67;;;19.80;99.90;;;;;;4970859;28;20202;-79
2021/10/20 09:37:08;;;;;;;13.00;12.20;;;19.60;99.90;;;;;;4963513;28;20206;-78
2021/10/20 09:39:38;;;;;;;12.90;12.10;;;19.40;99.90;;;;;;4951640;28;20217;-79
2021/10/20 09:42:10;;;;;;;13.53;12.60;;;19.20;99.90;;;;;;4968910;28;20280;-79
2021/10/20 09:44:47;;;;;;;12.80;12.00;;;19.10;99.90;;;;;;4965939;28;20197;-79
2021/10/20 09:47:14;;;;;;;13.00;12.10;;;19.00;99.90;;;;;;4967024;28;20577;-78
2021/10/20 09:49:48;;;;;;;13.53;12.50;;;19.00;99.90;;;;;;4947036;28;20212;-79
2021/10/20 09:52:15;;;;;;;12.30;11.40;;;19.10;99.90;;;;;;4966937;28;20666;-78
2021/10/20 09:54:45;;;;;;;13.13;12.23;;;19.10;99.90;;;;;;4965389;28;20261;-78
2021/10/20 09:57:15;;;;;;;12.23;11.43;;;19.10;99.90;;;;;;4969119;28;20674;-79
2021/10/20 09:59:42;;;;;;;11.60;10.90;;;19.20;99.90;;;;;;4948365;28;20241;-78
2021/10/20 10:02:10;;;;;;;12.03;11.20;;;19.20;99.90;;;;;;4965774;28;20642;-78
2021/10/20 10:04:38;;;;;;;11.83;10.93;;;19.10;99.90;;;;;;4969640;28;20585;-78
2021/10/20 10:07:05;;;;;;;11.80;11.00;;;18.90;99.90;;;;;;4968192;28;20210;-78
2021/10/20 10:09:33;;;;;;;12.17;11.37;;;19.00;99.90;;;;;;4965194;28;20196;-78
2021/10/20 10:12:05;;;;;;;12.00;11.30;;;19.10;99.90;;;;;;4965221;28;20222;-78
2021/10/20 10:14:38;;;;;;;12.80;11.80;;;19.20;99.90;;;;;;4948163;28;20201;-78
2021/10/20 10:17:06;;;;;;;12.30;11.57;;;19.00;99.90;;;;;;4974125;28;20201;-78
2021/10/20 10:19:38;;;;;;;11.70;11.00;;;19.10;99.90;;;;;;4962110;28;20582;-78
2021/10/20 10:22:21;;;;;;;12.10;11.30;;;19.30;99.90;;;;;;4965693;28;20229;-79
2021/10/20 10:24:48;;;;;;;11.77;11.07;;;19.40;99.90;;;;;;4952434;28;20699;-79
2021/10/20 10:27:17;;;;;;;11.97;11.27;;;19.50;99.90;;;;;;4971487;28;20251;-79
2021/10/20 10:29:49;;;;;;;12.20;11.50;;;19.60;99.90;;;;;;4947489;28;20194;-79
2021/10/20 10:32:19;;;;;;;12.07;11.20;;;19.70;99.90;;;;;;4950291;28;20220;-78
2021/10/20 10:34:47;;;;;;;11.80;11.10;;;19.60;99.90;;;;;;4946315;28;20229;-78
2021/10/20 10:37:25;;;;;;;11.70;10.97;;;19.70;99.90;;;;;;4947772;28;20198;-78
2021/10/20 10:39:52;;;;;;;11.90;11.20;;;19.70;99.90;;;;;;4965191;28;20213;-78
2021/10/20 10:42:31;;;;;;;12.10;11.33;;;19.80;99.90;;;;;;4948740;28;20322;-79
2021/10/20 10:45:09;;;;;;;12.30;11.50;;;19.90;99.90;;;;;;4963528;28;20224;-79
2021/10/20 10:47:36;;;;;;;11.47;10.70;;;20.00;99.90;;;;;;4963945;28;20206;-78
2021/10/20 10:50:11;;;;;;;12.10;11.30;;;20.00;99.90;;;;;;4950728;28;20235;-78
2021/10/20 10:52:41;;;;;;;11.60;10.90;;;20.20;99.90;;;;;;4969999;28;20267;-79
2021/10/20 10:55:17;;;;;;;11.93;11.00;;;20.20;99.90;;;;;;4945054;29;20223;-79
2021/10/20 10:57:51;;;;;;;11.60;10.80;;;20.10;99.90;;;;;;4950769;28;20666;-78
2021/10/20 11:00:46;;;;;;;11.93;11.23;;;20.20;99.90;;;;;;4968456;28;20224;-78
2021/10/20 11:03:21;;;;;;;11.67;10.67;;;20.30;99.90;;;;;;4943607;28;20206;-79
2021/10/20 11:05:53;;;;;;;11.63;10.93;;;20.40;99.90;;;;;;4969622;28;20204;-79
2021/10/20 11:08:21;;;;;;;11.60;10.80;;;20.70;99.90;;;;;;4948088;28;20551;-79
2021/10/20 11:10:48;;;;;;;12.93;11.97;;;20.80;99.90;;;;;;4947189;28;20278;-78
2021/10/20 11:13:17;;;;;;;11.70;11.00;;;20.90;99.90;;;;;;4965835;28;20613;-79
2021/10/20 11:15:44;;;;;;;11.57;10.87;;;20.90;99.90;;;;;;4945685;28;20212;-79
2021/10/20 11:18:12;;;;;;;11.30;10.50;;;20.90;99.90;;;;;;4964762;28;20280;-79
2021/10/20 11:20:42;;;;;;;11.50;10.80;;;20.90;99.90;;;;;;4945495;28;20222;-79
2021/10/20 11:23:12;;;;;;;11.90;11.20;;;21.00;99.90;;;;;;4948480;28;20222;-79
2021/10/20 11:25:40;;;;;;;12.73;11.93;;;21.00;99.90;;;;;;4947214;28;20257;-79
2021/10/20 11:28:08;;;;;;;11.67;10.97;;;21.10;99.90;;;;;;4964283;28;20213;-78
2021/10/20 11:30:38;;;;;;;11.77;10.97;;;21.10;99.90;;;;;;4950462;28;20221;-79
2021/10/20 11:33:11;;;;;;;11.50;10.90;;;21.00;99.90;;;;;;4966852;28;20264;-79
2021/10/20 11:35:38;;;;;;;11.57;10.87;;;21.00;99.90;;;;;;4946092;28;20208;-79
2021/10/20 11:38:10;;;;;;;11.87;11.17;;;21.00;99.90;;;;;;4964467;28;20202;-79
2021/10/20 11:40:40;;;;;;;11.10;10.50;;;21.00;99.90;;;;;;4963633;28;20221;-79
2021/10/20 11:43:14;;;;;;;11.50;10.80;;;21.00;99.90;;;;;;4962456;28;20739;-79
2021/10/20 11:45:43;;;;;;;11.50;10.80;;;21.00;99.90;;;;;;4964517;28;20612;-79
2021/10/20 11:48:10;;;;;;;11.30;10.60;;;21.10;99.90;;;;;;4964797;28;20626;-78
2021/10/20 11:50:37;;;;;;;11.37;10.67;;;21.30;99.90;;;;;;4969549;28;20221;-79
2021/10/20 11:53:07;;;;;;;11.43;10.73;;;21.30;99.90;;;;;;4974797;28;20201;-79
2021/10/20 11:55:34;;;;;;;11.80;11.10;;;21.30;99.90;;;;;;4962691;28;20198;-79
2021/10/20 11:58:01;;;;;;;11.60;10.90;;;21.20;99.90;;;;;;4951794;28;20205;-78
2021/10/20 12:00:28;;;;;;;12.13;11.23;;;21.20;99.90;;;;;;4969063;28;20217;-78
2021/10/20 12:03:00;;;;;;;12.27;11.47;;;21.20;99.90;;;;;;4940563;29;20206;-78
2021/10/20 12:05:27;;;;;;;13.10;12.20;;;21.20;99.90;;;;;;4957235;28;20277;-78
2021/10/20 12:07:54;;;;;;;12.27;11.47;;;21.20;99.90;;;;;;4940269;29;20210;-78
2021/10/20 12:10:21;;;;;;;11.83;11.00;;;21.20;99.90;;;;;;4967747;28;20214;-79
2021/10/20 12:12:49;;;;;;;11.87;11.17;;;21.30;99.90;;;;;;4940427;28;20202;-79
2021/10/20 12:15:18;;;;;;;11.60;10.90;;;21.30;99.90;;;;;;4957013;28;20202;-79
2021/10/20 12:17:48;;;;;;;12.73;11.80;;;21.40;99.90;;;;;;4957558;28;20195;-79
2021/10/20 12:20:18;;;;;;;11.93;11.13;;;21.40;99.90;;;;;;4941594;28;20218;-79
2021/10/20 12:22:47;;;;;;;11.77;11.07;;;21.50;99.90;;;;;;4957798;28;20282;-79
2021/10/20 12:25:14;;;;;;;11.63;10.83;;;21.70;99.90;;;;;;4958271;29;20253;-79
2021/10/20 12:27:42;;;;;;;11.53;10.83;;;21.60;99.90;;;;;;4940805;29;20194;-79
2021/10/20 12:30:11;;;;;;;11.20;10.60;;;21.60;99.90;;;;;;4957006;28;20198;-79
2021/10/20 12:32:39;;;;;;;11.23;10.57;;;21.70;99.90;;;;;;4939563;29;20207;-80
2021/10/20 12:35:09;;;;;;;11.30;10.60;;;21.80;99.90;;;;;;4947954;28;20212;-79
2021/10/20 12:37:39;;;;;;;12.07;11.37;;;21.90;99.90;;;;;;4962773;28;20198;-79